sensor_id;sensor_type;location;lat;lon;timestamp;P1;durP1;ratioP1;P2;durP2;ratioP2
19107;SDS011;9686;48.832;9.126;2022-07-12T00:00:01;2.60;;;2.40;;
19107;SDS011;9686;48.832;9.126;2022-07-12T00:02:29;2.47;;;2.27;;
19107;SDS011;9686;48.832;9.126;2022-07-12T00:04:54;2.47;;;2.27;;
19107;SDS011;9686;48.832;9.126;2022-07-12T00:07:19;3.97;;;2.10;;
19107;SDS011;9686;48.832;9.126;2022-07-12T00:09:45;2.50;;;2.30;;
19107;SDS011;9686;48.832;9.126;2022-07-12T00:12:10;3.00;;;2.23;;
19107;SDS011;9686;48.832;9.126;2022-07-12T00:14:35;2.47;;;2.27;;
19107;SDS011;9686;48.832;9.126;2022-07-12T00:17:01;3.07;;;1.90;;
19107;SDS011;9686;48.832;9.126;2022-07-12T00:19:29;2.20;;;2.00;;
19107;SDS011;9686;48.832;9.126;2022-07-12T00:24:29;2.47;;;2.00;;
19107;SDS011;9686;48.832;9.126;2022-07-12T00:26:54;2.20;;;2.00;;
19107;SDS011;9686;48.832;9.126;2022-07-12T00:29:20;2.47;;;2.27;;
19107;SDS011;9686;48.832;9.126;2022-07-12T00:31:45;2.10;;;1.90;;
19107;SDS011;9686;48.832;9.126;2022-07-12T00:34:10;2.23;;;2.03;;
19107;SDS011;9686;48.832;9.126;2022-07-12T00:36:39;2.10;;;2.00;;
19107;SDS011;9686;48.832;9.126;2022-07-12T00:39:04;2.53;;;2.20;;
19107;SDS011;9686;48.832;9.126;2022-07-12T00:41:30;2.20;;;2.00;;
19107;SDS011;9686;48.832;9.126;2022-07-12T00:43:55;2.40;;;2.10;;
19107;SDS011;9686;48.832;9.126;2022-07-12T00:46:22;2.20;;;2.00;;
19107;SDS011;9686;48.832;9.126;2022-07-12T00:48:48;2.70;;;2.47;;
19107;SDS011;9686;48.832;9.126;2022-07-12T00:51:13;2.53;;;2.33;;
19107;SDS011;9686;48.832;9.126;2022-07-12T00:53:39;2.30;;;2.20;;
19107;SDS011;9686;48.832;9.126;2022-07-12T00:56:04;2.50;;;2.30;;
19107;SDS011;9686;48.832;9.126;2022-07-12T00:58:30;2.50;;;2.30;;
19107;SDS011;9686;48.832;9.126;2022-07-12T01:00:56;4.00;;;2.60;;
19107;SDS011;9686;48.832;9.126;2022-07-12T01:03:22;2.70;;;2.50;;
19107;SDS011;9686;48.832;9.126;2022-07-12T01:05:47;2.90;;;2.50;;
19107;SDS011;9686;48.832;9.126;2022-07-12T01:08:13;3.00;;;2.67;;
19107;SDS011;9686;48.832;9.126;2022-07-12T01:10:40;2.83;;;2.63;;
19107;SDS011;9686;48.832;9.126;2022-07-12T01:13:06;2.40;;;2.20;;
19107;SDS011;9686;48.832;9.126;2022-07-12T01:15:32;3.50;;;2.67;;
19107;SDS011;9686;48.832;9.126;2022-07-12T01:17:58;2.77;;;2.57;;
19107;SDS011;9686;48.832;9.126;2022-07-12T01:20:27;3.20;;;2.90;;
19107;SDS011;9686;48.832;9.126;2022-07-12T01:22:55;2.80;;;2.60;;
19107;SDS011;9686;48.832;9.126;2022-07-12T01:25:25;4.53;;;2.37;;
19107;SDS011;9686;48.832;9.126;2022-07-12T01:27:51;2.87;;;2.67;;
19107;SDS011;9686;48.832;9.126;2022-07-12T01:30:16;3.33;;;2.97;;
19107;SDS011;9686;48.832;9.126;2022-07-12T01:32:41;4.27;;;2.77;;
19107;SDS011;9686;48.832;9.126;2022-07-12T01:35:08;3.27;;;2.90;;
19107;SDS011;9686;48.832;9.126;2022-07-12T01:37:34;2.87;;;2.67;;
19107;SDS011;9686;48.832;9.126;2022-07-12T01:40:06;3.40;;;2.77;;
19107;SDS011;9686;48.832;9.126;2022-07-12T01:42:33;3.20;;;2.90;;
19107;SDS011;9686;48.832;9.126;2022-07-12T01:44:58;6.33;;;3.40;;
19107;SDS011;9686;48.832;9.126;2022-07-12T01:47:25;4.70;;;3.07;;
19107;SDS011;9686;48.832;9.126;2022-07-12T01:49:52;4.47;;;3.40;;
19107;SDS011;9686;48.832;9.126;2022-07-12T01:52:18;4.23;;;3.50;;
19107;SDS011;9686;48.832;9.126;2022-07-12T01:57:45;3.50;;;3.17;;
19107;SDS011;9686;48.832;9.126;2022-07-12T02:00:11;3.33;;;2.93;;
19107;SDS011;9686;48.832;9.126;2022-07-12T02:02:37;3.67;;;3.10;;
19107;SDS011;9686;48.832;9.126;2022-07-12T02:05:03;4.20;;;3.37;;
19107;SDS011;9686;48.832;9.126;2022-07-12T02:07:29;3.97;;;3.20;;
19107;SDS011;9686;48.832;9.126;2022-07-12T02:09:55;4.20;;;3.00;;
19107;SDS011;9686;48.832;9.126;2022-07-12T02:12:21;4.00;;;3.13;;
19107;SDS011;9686;48.832;9.126;2022-07-12T02:14:46;4.97;;;3.20;;
19107;SDS011;9686;48.832;9.126;2022-07-12T02:17:11;3.77;;;3.30;;
19107;SDS011;9686;48.832;9.126;2022-07-12T02:19:37;4.53;;;3.43;;
19107;SDS011;9686;48.832;9.126;2022-07-12T02:22:02;3.47;;;3.17;;
19107;SDS011;9686;48.832;9.126;2022-07-12T02:24:28;3.53;;;2.97;;
19107;SDS011;9686;48.832;9.126;2022-07-12T02:26:53;3.33;;;3.03;;
19107;SDS011;9686;48.832;9.126;2022-07-12T02:29:18;3.40;;;2.77;;
19107;SDS011;9686;48.832;9.126;2022-07-12T02:31:44;3.57;;;3.20;;
19107;SDS011;9686;48.832;9.126;2022-07-12T02:34:09;3.20;;;2.90;;
19107;SDS011;9686;48.832;9.126;2022-07-12T02:36:34;5.13;;;3.40;;
19107;SDS011;9686;48.832;9.126;2022-07-12T02:39:00;4.23;;;2.97;;
19107;SDS011;9686;48.832;9.126;2022-07-12T02:41:32;5.63;;;3.37;;
19107;SDS011;9686;48.832;9.126;2022-07-12T02:43:58;3.40;;;3.10;;
19107;SDS011;9686;48.832;9.126;2022-07-12T02:46:23;2.87;;;2.67;;
19107;SDS011;9686;48.832;9.126;2022-07-12T02:48:49;3.43;;;2.80;;
19107;SDS011;9686;48.832;9.126;2022-07-12T02:51:14;3.03;;;2.80;;
19107;SDS011;9686;48.832;9.126;2022-07-12T02:53:39;3.00;;;2.80;;
19107;SDS011;9686;48.832;9.126;2022-07-12T02:56:05;3.20;;;2.90;;
19107;SDS011;9686;48.832;9.126;2022-07-12T02:58:30;4.67;;;3.23;;
19107;SDS011;9686;48.832;9.126;2022-07-12T03:00:56;3.90;;;2.97;;
19107;SDS011;9686;48.832;9.126;2022-07-12T03:03:21;3.87;;;3.03;;
19107;SDS011;9686;48.832;9.126;2022-07-12T03:05:47;3.50;;;3.20;;
19107;SDS011;9686;48.832;9.126;2022-07-12T03:08:12;4.00;;;3.13;;
19107;SDS011;9686;48.832;9.126;2022-07-12T03:10:38;7.30;;;3.37;;
19107;SDS011;9686;48.832;9.126;2022-07-12T03:13:04;4.07;;;3.10;;
19107;SDS011;9686;48.832;9.126;2022-07-12T03:15:30;4.40;;;3.47;;
19107;SDS011;9686;48.832;9.126;2022-07-12T03:17:57;5.53;;;3.57;;
19107;SDS011;9686;48.832;9.126;2022-07-12T03:20:23;6.10;;;3.40;;
19107;SDS011;9686;48.832;9.126;2022-07-12T03:22:49;4.07;;;3.67;;
19107;SDS011;9686;48.832;9.126;2022-07-12T03:25:16;3.90;;;3.20;;
19107;SDS011;9686;48.832;9.126;2022-07-12T03:27:42;4.20;;;3.10;;
19107;SDS011;9686;48.832;9.126;2022-07-12T03:30:08;3.93;;;3.20;;
19107;SDS011;9686;48.832;9.126;2022-07-12T03:32:34;3.73;;;3.30;;
19107;SDS011;9686;48.832;9.126;2022-07-12T03:35:00;4.90;;;3.50;;
19107;SDS011;9686;48.832;9.126;2022-07-12T03:37:26;5.13;;;3.50;;
19107;SDS011;9686;48.832;9.126;2022-07-12T03:39:51;3.23;;;2.93;;
19107;SDS011;9686;48.832;9.126;2022-07-12T03:42:18;3.53;;;3.30;;
19107;SDS011;9686;48.832;9.126;2022-07-12T03:44:44;3.50;;;3.20;;
19107;SDS011;9686;48.832;9.126;2022-07-12T03:47:09;3.63;;;3.30;;
19107;SDS011;9686;48.832;9.126;2022-07-12T03:49:34;3.60;;;3.27;;
19107;SDS011;9686;48.832;9.126;2022-07-12T03:52:00;4.83;;;3.37;;
19107;SDS011;9686;48.832;9.126;2022-07-12T03:54:27;3.93;;;3.53;;
19107;SDS011;9686;48.832;9.126;2022-07-12T03:56:53;3.50;;;3.20;;
19107;SDS011;9686;48.832;9.126;2022-07-12T03:59:37;4.70;;;3.60;;
19107;SDS011;9686;48.832;9.126;2022-07-12T04:02:02;3.83;;;3.50;;
19107;SDS011;9686;48.832;9.126;2022-07-12T04:04:28;4.97;;;3.37;;
19107;SDS011;9686;48.832;9.126;2022-07-12T04:06:53;5.20;;;3.50;;
19107;SDS011;9686;48.832;9.126;2022-07-12T04:09:40;4.60;;;2.83;;
19107;SDS011;9686;48.832;9.126;2022-07-12T04:12:05;3.73;;;3.13;;
19107;SDS011;9686;48.832;9.126;2022-07-12T04:14:30;6.20;;;3.83;;
19107;SDS011;9686;48.832;9.126;2022-07-12T04:16:56;3.93;;;3.53;;
19107;SDS011;9686;48.832;9.126;2022-07-12T04:19:21;5.50;;;3.70;;
19107;SDS011;9686;48.832;9.126;2022-07-12T04:21:50;4.90;;;3.47;;
19107;SDS011;9686;48.832;9.126;2022-07-12T04:24:15;3.50;;;3.20;;
19107;SDS011;9686;48.832;9.126;2022-07-12T04:26:40;4.60;;;3.23;;
19107;SDS011;9686;48.832;9.126;2022-07-12T04:29:06;3.37;;;2.70;;
19107;SDS011;9686;48.832;9.126;2022-07-12T04:31:32;4.03;;;3.63;;
19107;SDS011;9686;48.832;9.126;2022-07-12T04:33:57;5.27;;;3.40;;
19107;SDS011;9686;48.832;9.126;2022-07-12T04:36:22;4.17;;;3.80;;
19107;SDS011;9686;48.832;9.126;2022-07-12T04:38:48;5.27;;;3.57;;
19107;SDS011;9686;48.832;9.126;2022-07-12T04:41:13;3.33;;;3.03;;
19107;SDS011;9686;48.832;9.126;2022-07-12T04:43:38;3.30;;;3.00;;
19107;SDS011;9686;48.832;9.126;2022-07-12T04:46:07;6.03;;;3.70;;
19107;SDS011;9686;48.832;9.126;2022-07-12T04:48:33;3.73;;;3.43;;
19107;SDS011;9686;48.832;9.126;2022-07-12T04:50:59;7.17;;;3.40;;
19107;SDS011;9686;48.832;9.126;2022-07-12T04:53:24;3.97;;;3.27;;
19107;SDS011;9686;48.832;9.126;2022-07-12T04:55:50;4.97;;;3.30;;
19107;SDS011;9686;48.832;9.126;2022-07-12T04:58:15;4.20;;;3.77;;
19107;SDS011;9686;48.832;9.126;2022-07-12T05:00:43;4.10;;;3.70;;
19107;SDS011;9686;48.832;9.126;2022-07-12T05:03:12;3.50;;;3.20;;
19107;SDS011;9686;48.832;9.126;2022-07-12T05:05:37;4.63;;;3.87;;
19107;SDS011;9686;48.832;9.126;2022-07-12T05:08:02;9.07;;;4.13;;
19107;SDS011;9686;48.832;9.126;2022-07-12T05:10:29;4.60;;;4.17;;
19107;SDS011;9686;48.832;9.126;2022-07-12T05:12:54;5.37;;;4.00;;
19107;SDS011;9686;48.832;9.126;2022-07-12T05:15:20;3.93;;;3.60;;
19107;SDS011;9686;48.832;9.126;2022-07-12T05:17:46;3.90;;;2.70;;
19107;SDS011;9686;48.832;9.126;2022-07-12T05:20:11;4.03;;;3.67;;
19107;SDS011;9686;48.832;9.126;2022-07-12T05:22:36;5.23;;;3.93;;
19107;SDS011;9686;48.832;9.126;2022-07-12T05:25:02;4.07;;;3.67;;
19107;SDS011;9686;48.832;9.126;2022-07-12T05:27:27;5.20;;;3.97;;
19107;SDS011;9686;48.832;9.126;2022-07-12T05:29:53;4.27;;;3.83;;
19107;SDS011;9686;48.832;9.126;2022-07-12T05:32:18;5.00;;;3.60;;
19107;SDS011;9686;48.832;9.126;2022-07-12T05:34:43;5.00;;;3.77;;
19107;SDS011;9686;48.832;9.126;2022-07-12T05:37:09;4.80;;;3.03;;
19107;SDS011;9686;48.832;9.126;2022-07-12T05:39:37;3.90;;;3.33;;
19107;SDS011;9686;48.832;9.126;2022-07-12T05:42:02;3.93;;;3.60;;
19107;SDS011;9686;48.832;9.126;2022-07-12T05:44:28;3.70;;;3.40;;
19107;SDS011;9686;48.832;9.126;2022-07-12T05:46:53;4.93;;;3.57;;
19107;SDS011;9686;48.832;9.126;2022-07-12T05:49:18;3.90;;;3.43;;
19107;SDS011;9686;48.832;9.126;2022-07-12T05:51:43;3.00;;;2.70;;
19107;SDS011;9686;48.832;9.126;2022-07-12T05:54:27;7.07;;;3.77;;
19107;SDS011;9686;48.832;9.126;2022-07-12T05:56:52;5.00;;;3.07;;
19107;SDS011;9686;48.832;9.126;2022-07-12T05:59:18;4.00;;;3.30;;
19107;SDS011;9686;48.832;9.126;2022-07-12T06:01:43;1.97;;;1.87;;
19107;SDS011;9686;48.832;9.126;2022-07-12T06:04:09;3.00;;;2.57;;
19107;SDS011;9686;48.832;9.126;2022-07-12T06:06:34;2.70;;;2.50;;
19107;SDS011;9686;48.832;9.126;2022-07-12T06:09:00;3.60;;;2.70;;
19107;SDS011;9686;48.832;9.126;2022-07-12T06:11:25;2.90;;;2.40;;
19107;SDS011;9686;48.832;9.126;2022-07-12T06:13:51;2.83;;;2.60;;
19107;SDS011;9686;48.832;9.126;2022-07-12T06:16:16;3.37;;;2.30;;
19107;SDS011;9686;48.832;9.126;2022-07-12T06:18:42;1.83;;;1.67;;
19107;SDS011;9686;48.832;9.126;2022-07-12T06:21:07;2.73;;;1.63;;
19107;SDS011;9686;48.832;9.126;2022-07-12T06:23:33;4.17;;;1.97;;
19107;SDS011;9686;48.832;9.126;2022-07-12T06:25:58;2.67;;;1.97;;
19107;SDS011;9686;48.832;9.126;2022-07-12T06:28:23;1.77;;;1.67;;
19107;SDS011;9686;48.832;9.126;2022-07-12T06:30:49;3.40;;;2.70;;
19107;SDS011;9686;48.832;9.126;2022-07-12T06:33:14;3.83;;;2.13;;
19107;SDS011;9686;48.832;9.126;2022-07-12T06:35:39;8.17;;;1.63;;
19107;SDS011;9686;48.832;9.126;2022-07-12T06:38:05;2.60;;;1.20;;
19107;SDS011;9686;48.832;9.126;2022-07-12T06:40:30;3.27;;;1.73;;
19107;SDS011;9686;48.832;9.126;2022-07-12T06:42:56;1.67;;;1.50;;
19107;SDS011;9686;48.832;9.126;2022-07-12T06:45:21;1.63;;;1.40;;
19107;SDS011;9686;48.832;9.126;2022-07-12T06:47:47;3.30;;;1.63;;
19107;SDS011;9686;48.832;9.126;2022-07-12T06:50:12;1.90;;;1.70;;
19107;SDS011;9686;48.832;9.126;2022-07-12T06:52:37;2.27;;;1.60;;
19107;SDS011;9686;48.832;9.126;2022-07-12T06:55:03;1.27;;;0.90;;
19107;SDS011;9686;48.832;9.126;2022-07-12T06:57:29;1.17;;;1.10;;
19107;SDS011;9686;48.832;9.126;2022-07-12T07:08:00;0.90;;;0.70;;
19107;SDS011;9686;48.832;9.126;2022-07-12T07:10:25;0.90;;;0.60;;
19107;SDS011;9686;48.832;9.126;2022-07-12T07:12:50;0.90;;;0.73;;
19107;SDS011;9686;48.832;9.126;2022-07-12T07:15:16;0.80;;;0.80;;
19107;SDS011;9686;48.832;9.126;2022-07-12T07:17:42;1.00;;;0.90;;
19107;SDS011;9686;48.832;9.126;2022-07-12T07:20:08;1.63;;;0.63;;
19107;SDS011;9686;48.832;9.126;2022-07-12T07:22:37;1.97;;;0.63;;
19107;SDS011;9686;48.832;9.126;2022-07-12T07:25:03;0.60;;;0.60;;
19107;SDS011;9686;48.832;9.126;2022-07-12T07:27:29;0.70;;;0.70;;
19107;SDS011;9686;48.832;9.126;2022-07-12T07:37:40;1.00;;;0.80;;
19107;SDS011;9686;48.832;9.126;2022-07-12T07:40:17;1.70;;;0.80;;
19107;SDS011;9686;48.832;9.126;2022-07-12T07:42:43;0.60;;;0.60;;
19107;SDS011;9686;48.832;9.126;2022-07-12T07:45:08;1.20;;;0.80;;
19107;SDS011;9686;48.832;9.126;2022-07-12T07:47:45;0.50;;;0.50;;
19107;SDS011;9686;48.832;9.126;2022-07-12T07:50:13;1.13;;;0.67;;
19107;SDS011;9686;48.832;9.126;2022-07-12T07:52:38;1.27;;;0.80;;
19107;SDS011;9686;48.832;9.126;2022-07-12T07:55:04;0.73;;;0.50;;
19107;SDS011;9686;48.832;9.126;2022-07-12T07:57:29;0.80;;;0.70;;
19107;SDS011;9686;48.832;9.126;2022-07-12T08:10:57;1.17;;;0.80;;
19107;SDS011;9686;48.832;9.126;2022-07-12T08:13:23;0.60;;;0.60;;
19107;SDS011;9686;48.832;9.126;2022-07-12T08:15:48;1.47;;;0.83;;
19107;SDS011;9686;48.832;9.126;2022-07-12T08:18:14;1.33;;;1.00;;
19107;SDS011;9686;48.832;9.126;2022-07-12T08:20:39;3.90;;;0.70;;
19107;SDS011;9686;48.832;9.126;2022-07-12T08:23:05;1.70;;;0.80;;
19107;SDS011;9686;48.832;9.126;2022-07-12T08:25:30;1.00;;;0.90;;
19107;SDS011;9686;48.832;9.126;2022-07-12T08:27:56;0.77;;;0.70;;
19107;SDS011;9686;48.832;9.126;2022-07-12T08:30:22;0.83;;;0.60;;
19107;SDS011;9686;48.832;9.126;2022-07-12T08:32:47;0.90;;;0.83;;
19107;SDS011;9686;48.832;9.126;2022-07-12T08:35:13;2.10;;;0.60;;
19107;SDS011;9686;48.832;9.126;2022-07-12T08:37:41;0.43;;;0.43;;
19107;SDS011;9686;48.832;9.126;2022-07-12T08:46:02;0.93;;;0.60;;
19107;SDS011;9686;48.832;9.126;2022-07-12T08:56:29;0.40;;;0.40;;
19107;SDS011;9686;48.832;9.126;2022-07-12T08:59:18;0.50;;;0.50;;
19107;SDS011;9686;48.832;9.126;2022-07-12T09:01:52;0.83;;;0.73;;
19107;SDS011;9686;48.832;9.126;2022-07-12T09:04:22;1.03;;;0.60;;
19107;SDS011;9686;48.832;9.126;2022-07-12T09:06:50;0.83;;;0.60;;
19107;SDS011;9686;48.832;9.126;2022-07-12T09:09:34;0.60;;;0.47;;
19107;SDS011;9686;48.832;9.126;2022-07-12T09:12:03;0.80;;;0.70;;
19107;SDS011;9686;48.832;9.126;2022-07-12T09:14:28;1.03;;;0.70;;
19107;SDS011;9686;48.832;9.126;2022-07-12T09:16:59;1.10;;;0.70;;
19107;SDS011;9686;48.832;9.126;2022-07-12T10:03:28;1.23;;;0.50;;
19107;SDS011;9686;48.832;9.126;2022-07-12T10:05:56;0.50;;;0.50;;
19107;SDS011;9686;48.832;9.126;2022-07-12T10:16:10;0.90;;;0.60;;
19107;SDS011;9686;48.832;9.126;2022-07-12T10:26:24;0.77;;;0.50;;
19107;SDS011;9686;48.832;9.126;2022-07-12T10:36:52;0.93;;;0.50;;
19107;SDS011;9686;48.832;9.126;2022-07-12T10:49:48;0.47;;;0.37;;
19107;SDS011;9686;48.832;9.126;2022-07-12T10:52:15;0.73;;;0.40;;
19107;SDS011;9686;48.832;9.126;2022-07-12T10:57:41;0.40;;;0.40;;
19107;SDS011;9686;48.832;9.126;2022-07-12T11:02:46;0.40;;;0.40;;
19107;SDS011;9686;48.832;9.126;2022-07-12T11:05:11;0.30;;;0.30;;
19107;SDS011;9686;48.832;9.126;2022-07-12T11:07:37;0.43;;;0.40;;
19107;SDS011;9686;48.832;9.126;2022-07-12T11:12:47;0.40;;;0.40;;
19107;SDS011;9686;48.832;9.126;2022-07-12T11:15:12;0.40;;;0.40;;
19107;SDS011;9686;48.832;9.126;2022-07-12T11:17:38;1.50;;;0.40;;
19107;SDS011;9686;48.832;9.126;2022-07-12T11:20:10;0.67;;;0.43;;
19107;SDS011;9686;48.832;9.126;2022-07-12T11:22:38;2.07;;;0.53;;
19107;SDS011;9686;48.832;9.126;2022-07-12T11:25:06;1.13;;;0.40;;
19107;SDS011;9686;48.832;9.126;2022-07-12T11:27:33;0.53;;;0.40;;
19107;SDS011;9686;48.832;9.126;2022-07-12T11:32:38;0.50;;;0.50;;
19107;SDS011;9686;48.832;9.126;2022-07-12T11:35:27;1.37;;;0.37;;
19107;SDS011;9686;48.832;9.126;2022-07-12T11:37:54;0.43;;;0.43;;
19107;SDS011;9686;48.832;9.126;2022-07-12T12:01:17;0.40;;;0.40;;
19107;SDS011;9686;48.832;9.126;2022-07-12T12:03:51;2.93;;;0.50;;
19107;SDS011;9686;48.832;9.126;2022-07-12T12:06:17;1.10;;;0.37;;
19107;SDS011;9686;48.832;9.126;2022-07-12T12:08:42;0.60;;;0.40;;
19107;SDS011;9686;48.832;9.126;2022-07-12T12:11:10;0.30;;;0.30;;
19107;SDS011;9686;48.832;9.126;2022-07-12T12:13:35;1.40;;;0.40;;
19107;SDS011;9686;48.832;9.126;2022-07-12T12:16:02;0.40;;;0.40;;
19107;SDS011;9686;48.832;9.126;2022-07-12T12:21:03;0.30;;;0.30;;
19107;SDS011;9686;48.832;9.126;2022-07-12T12:23:33;1.33;;;0.50;;
19107;SDS011;9686;48.832;9.126;2022-07-12T12:28:47;2.57;;;0.40;;
19107;SDS011;9686;48.832;9.126;2022-07-12T12:31:18;0.70;;;0.60;;
19107;SDS011;9686;48.832;9.126;2022-07-12T12:33:48;0.40;;;0.40;;
19107;SDS011;9686;48.832;9.126;2022-07-12T12:36:19;0.50;;;0.30;;
19107;SDS011;9686;48.832;9.126;2022-07-12T12:39:09;0.83;;;0.50;;
19107;SDS011;9686;48.832;9.126;2022-07-12T12:41:39;0.40;;;0.40;;
19107;SDS011;9686;48.832;9.126;2022-07-12T12:44:06;0.93;;;0.50;;
19107;SDS011;9686;48.832;9.126;2022-07-12T12:46:52;0.40;;;0.40;;
19107;SDS011;9686;48.832;9.126;2022-07-12T12:49:36;2.47;;;0.70;;
19107;SDS011;9686;48.832;9.126;2022-07-12T12:52:09;1.17;;;0.67;;
19107;SDS011;9686;48.832;9.126;2022-07-12T12:54:35;0.40;;;0.30;;
19107;SDS011;9686;48.832;9.126;2022-07-12T12:57:02;3.10;;;0.50;;
19107;SDS011;9686;48.832;9.126;2022-07-12T13:02:03;2.17;;;0.40;;
19107;SDS011;9686;48.832;9.126;2022-07-12T13:04:30;0.57;;;0.40;;
19107;SDS011;9686;48.832;9.126;2022-07-12T13:06:57;0.82;;;0.40;;
19107;SDS011;9686;48.832;9.126;2022-07-12T13:09:23;2.33;;;0.40;;
19107;SDS011;9686;48.832;9.126;2022-07-12T13:11:48;0.20;;;0.20;;
19107;SDS011;9686;48.832;9.126;2022-07-12T13:14:14;1.47;;;0.43;;
19107;SDS011;9686;48.832;9.126;2022-07-12T13:16:40;0.38;;;0.38;;
19107;SDS011;9686;48.832;9.126;2022-07-12T13:19:05;0.40;;;0.30;;
19107;SDS011;9686;48.832;9.126;2022-07-12T13:21:31;0.40;;;0.40;;
19107;SDS011;9686;48.832;9.126;2022-07-12T13:23:56;1.37;;;0.40;;
19107;SDS011;9686;48.832;9.126;2022-07-12T13:26:22;0.73;;;0.43;;
19107;SDS011;9686;48.832;9.126;2022-07-12T13:28:54;0.95;;;0.50;;
19107;SDS011;9686;48.832;9.126;2022-07-12T13:31:20;0.50;;;0.37;;
19107;SDS011;9686;48.832;9.126;2022-07-12T13:33:45;0.57;;;0.30;;
19107;SDS011;9686;48.832;9.126;2022-07-12T13:36:11;0.40;;;0.40;;
19107;SDS011;9686;48.832;9.126;2022-07-12T13:38:37;0.35;;;0.35;;
19107;SDS011;9686;48.832;9.126;2022-07-12T13:41:03;0.70;;;0.50;;
19107;SDS011;9686;48.832;9.126;2022-07-12T13:43:29;0.93;;;0.45;;
19107;SDS011;9686;48.832;9.126;2022-07-12T13:45:54;0.32;;;0.30;;
19107;SDS011;9686;48.832;9.126;2022-07-12T13:48:20;2.38;;;0.40;;
19107;SDS011;9686;48.832;9.126;2022-07-12T13:50:47;2.65;;;0.30;;
19107;SDS011;9686;48.832;9.126;2022-07-12T13:53:18;2.92;;;0.45;;
19107;SDS011;9686;48.832;9.126;2022-07-12T13:55:44;0.30;;;0.30;;
19107;SDS011;9686;48.832;9.126;2022-07-12T13:58:11;1.30;;;0.40;;
19107;SDS011;9686;48.832;9.126;2022-07-12T14:00:38;0.50;;;0.50;;
19107;SDS011;9686;48.832;9.126;2022-07-12T14:03:10;0.90;;;0.43;;
19107;SDS011;9686;48.832;9.126;2022-07-12T14:05:35;1.48;;;0.30;;
19107;SDS011;9686;48.832;9.126;2022-07-12T14:08:00;0.40;;;0.40;;
19107;SDS011;9686;48.832;9.126;2022-07-12T14:10:26;1.00;;;0.70;;
19107;SDS011;9686;48.832;9.126;2022-07-12T14:12:52;0.40;;;0.40;;
19107;SDS011;9686;48.832;9.126;2022-07-12T14:15:20;0.80;;;0.60;;
19107;SDS011;9686;48.832;9.126;2022-07-12T14:18:00;0.65;;;0.30;;
19107;SDS011;9686;48.832;9.126;2022-07-12T14:20:26;0.43;;;0.35;;
19107;SDS011;9686;48.832;9.126;2022-07-12T14:22:51;1.27;;;0.45;;
19107;SDS011;9686;48.832;9.126;2022-07-12T14:25:18;0.60;;;0.50;;
19107;SDS011;9686;48.832;9.126;2022-07-12T14:27:43;0.35;;;0.32;;
19107;SDS011;9686;48.832;9.126;2022-07-12T14:30:10;1.42;;;0.35;;
19107;SDS011;9686;48.832;9.126;2022-07-12T14:32:38;0.50;;;0.50;;
19107;SDS011;9686;48.832;9.126;2022-07-12T14:35:04;1.17;;;0.40;;
19107;SDS011;9686;48.832;9.126;2022-07-12T14:37:31;0.75;;;0.30;;
19107;SDS011;9686;48.832;9.126;2022-07-12T14:39:57;0.53;;;0.40;;
19107;SDS011;9686;48.832;9.126;2022-07-12T14:42:22;3.40;;;0.50;;
19107;SDS011;9686;48.832;9.126;2022-07-12T14:44:48;1.20;;;0.38;;
19107;SDS011;9686;48.832;9.126;2022-07-12T14:47:13;0.30;;;0.30;;
19107;SDS011;9686;48.832;9.126;2022-07-12T14:49:39;1.67;;;0.40;;
19107;SDS011;9686;48.832;9.126;2022-07-12T14:52:05;0.38;;;0.30;;
19107;SDS011;9686;48.832;9.126;2022-07-12T14:54:31;0.57;;;0.43;;
19107;SDS011;9686;48.832;9.126;2022-07-12T14:56:57;0.32;;;0.30;;
19107;SDS011;9686;48.832;9.126;2022-07-12T14:59:22;1.52;;;0.50;;
19107;SDS011;9686;48.832;9.126;2022-07-12T15:01:48;0.65;;;0.50;;
19107;SDS011;9686;48.832;9.126;2022-07-12T15:04:14;0.63;;;0.60;;
19107;SDS011;9686;48.832;9.126;2022-07-12T15:06:39;1.07;;;0.40;;
19107;SDS011;9686;48.832;9.126;2022-07-12T15:09:05;0.40;;;0.40;;
19107;SDS011;9686;48.832;9.126;2022-07-12T15:11:30;0.30;;;0.30;;
19107;SDS011;9686;48.832;9.126;2022-07-12T15:13:56;1.23;;;0.47;;
19107;SDS011;9686;48.832;9.126;2022-07-12T15:16:21;0.40;;;0.40;;
19107;SDS011;9686;48.832;9.126;2022-07-12T15:18:46;1.35;;;0.40;;
19107;SDS011;9686;48.832;9.126;2022-07-12T15:21:12;2.13;;;0.32;;
19107;SDS011;9686;48.832;9.126;2022-07-12T15:23:37;0.77;;;0.40;;
19107;SDS011;9686;48.832;9.126;2022-07-12T15:26:02;0.68;;;0.38;;
19107;SDS011;9686;48.832;9.126;2022-07-12T15:28:28;1.40;;;0.50;;
19107;SDS011;9686;48.832;9.126;2022-07-12T15:30:54;0.50;;;0.50;;
19107;SDS011;9686;48.832;9.126;2022-07-12T15:33:20;0.43;;;0.43;;
19107;SDS011;9686;48.832;9.126;2022-07-12T15:35:45;0.40;;;0.40;;
19107;SDS011;9686;48.832;9.126;2022-07-12T15:38:11;0.70;;;0.45;;
19107;SDS011;9686;48.832;9.126;2022-07-12T15:40:36;0.57;;;0.57;;
19107;SDS011;9686;48.832;9.126;2022-07-12T15:43:02;0.40;;;0.40;;
19107;SDS011;9686;48.832;9.126;2022-07-12T15:45:28;0.93;;;0.50;;
19107;SDS011;9686;48.832;9.126;2022-07-12T15:47:53;3.13;;;0.50;;
19107;SDS011;9686;48.832;9.126;2022-07-12T15:50:19;0.40;;;0.40;;
19107;SDS011;9686;48.832;9.126;2022-07-12T15:52:44;1.75;;;0.60;;
19107;SDS011;9686;48.832;9.126;2022-07-12T15:55:28;0.55;;;0.40;;
19107;SDS011;9686;48.832;9.126;2022-07-12T15:57:54;0.95;;;0.52;;
19107;SDS011;9686;48.832;9.126;2022-07-12T16:00:20;0.43;;;0.43;;
19107;SDS011;9686;48.832;9.126;2022-07-12T16:02:46;0.50;;;0.32;;
19107;SDS011;9686;48.832;9.126;2022-07-12T16:05:11;0.40;;;0.40;;
19107;SDS011;9686;48.832;9.126;2022-07-12T16:07:37;1.40;;;0.70;;
19107;SDS011;9686;48.832;9.126;2022-07-12T16:10:04;0.80;;;0.63;;
19107;SDS011;9686;48.832;9.126;2022-07-12T16:12:30;0.50;;;0.40;;
19107;SDS011;9686;48.832;9.126;2022-07-12T16:14:56;1.00;;;0.40;;
19107;SDS011;9686;48.832;9.126;2022-07-12T16:17:21;0.50;;;0.50;;
19107;SDS011;9686;48.832;9.126;2022-07-12T16:19:47;0.60;;;0.50;;
19107;SDS011;9686;48.832;9.126;2022-07-12T16:22:12;0.45;;;0.45;;
19107;SDS011;9686;48.832;9.126;2022-07-12T16:24:37;3.25;;;0.50;;
19107;SDS011;9686;48.832;9.126;2022-07-12T16:27:03;1.75;;;0.60;;
19107;SDS011;9686;48.832;9.126;2022-07-12T16:32:04;1.08;;;0.50;;
19107;SDS011;9686;48.832;9.126;2022-07-12T16:34:30;0.40;;;0.40;;
19107;SDS011;9686;48.832;9.126;2022-07-12T16:36:56;1.40;;;0.75;;
19107;SDS011;9686;48.832;9.126;2022-07-12T16:39:21;1.95;;;0.45;;
19107;SDS011;9686;48.832;9.126;2022-07-12T16:41:47;0.75;;;0.50;;
19107;SDS011;9686;48.832;9.126;2022-07-12T16:44:12;1.38;;;0.43;;
19107;SDS011;9686;48.832;9.126;2022-07-12T16:46:37;0.95;;;0.57;;
19107;SDS011;9686;48.832;9.126;2022-07-12T16:49:04;0.98;;;0.52;;
19107;SDS011;9686;48.832;9.126;2022-07-12T16:51:29;1.33;;;0.60;;
19107;SDS011;9686;48.832;9.126;2022-07-12T16:53:56;0.73;;;0.32;;
19107;SDS011;9686;48.832;9.126;2022-07-12T16:56:24;0.45;;;0.45;;
19107;SDS011;9686;48.832;9.126;2022-07-12T16:58:54;0.50;;;0.47;;
19107;SDS011;9686;48.832;9.126;2022-07-12T17:01:20;0.98;;;0.70;;
19107;SDS011;9686;48.832;9.126;2022-07-12T17:03:47;0.60;;;0.60;;
19107;SDS011;9686;48.832;9.126;2022-07-12T17:06:13;0.40;;;0.40;;
19107;SDS011;9686;48.832;9.126;2022-07-12T17:08:38;1.83;;;0.70;;
19107;SDS011;9686;48.832;9.126;2022-07-12T17:11:04;0.63;;;0.47;;
19107;SDS011;9686;48.832;9.126;2022-07-12T17:13:29;0.88;;;0.60;;
19107;SDS011;9686;48.832;9.126;2022-07-12T17:15:55;0.43;;;0.40;;
19107;SDS011;9686;48.832;9.126;2022-07-12T17:18:21;0.60;;;0.50;;
19107;SDS011;9686;48.832;9.126;2022-07-12T17:26:09;2.10;;;1.20;;
19107;SDS011;9686;48.832;9.126;2022-07-12T17:28:35;1.83;;;0.60;;
19107;SDS011;9686;48.832;9.126;2022-07-12T17:33:54;1.25;;;0.80;;
19107;SDS011;9686;48.832;9.126;2022-07-12T17:36:20;1.13;;;0.80;;
19107;SDS011;9686;48.832;9.126;2022-07-12T17:38:45;0.40;;;0.40;;
19107;SDS011;9686;48.832;9.126;2022-07-12T17:41:24;0.50;;;0.50;;
19107;SDS011;9686;48.832;9.126;2022-07-12T17:43:50;2.38;;;0.80;;
19107;SDS011;9686;48.832;9.126;2022-07-12T17:46:15;0.40;;;0.40;;
19107;SDS011;9686;48.832;9.126;2022-07-12T17:48:41;0.82;;;0.50;;
19107;SDS011;9686;48.832;9.126;2022-07-12T17:51:06;1.83;;;0.60;;